Boykins, VA (23827)

2:18 AM EST on November 29, 2014 (GMT -0500)
Conway - 35S | Change Station
CLOSE
Current Station
Personal Weather Station
Location: Conway, NC
Elevation: 105 ft
Nearby Weather Stations

Elev 105 ft 36.43 °N, 77.23 °W | Updated 28 seconds ago

Clear
Clear
26.8 °F
Feels Like 27 °F
N
0.0
Wind Variable Wind from NNW
Gusts 0.0 mph

Today
High -- | Low -- °F
--% Chance of Precip.
Yesterday
High -- | Low -- °F
Precip. -- in
7:00 AM 4:53 PM
Waxing Crescent, 49% visible
Pressure 30.33 in
Visibility 10.0 miles
Clouds Clear
Windchill 27 °F
Dew Point 25 °F
Humidity 92%
Rainfall 0.00 in
Snow Depth Not available.
UV 0 out of 12
Pollen .20 out of 12
Air Quality Not available.
Flu Activity Not available.
METAR KEMV 290655Z AUTO 00000KT 10SM CLR M04/M05 A3033 RMK AO2

More Conditions Fewer Conditions

Pressure 30.33 in
Visibility 10.0 miles
Clouds Clear
Windchill 27 °F
Dew Point 25 °F
Humidity 92%
Rainfall 0.00 in
Snow Depth Not available.
UV 0 out of 12
Pollen .20 out of 12
Air Quality Not available.
Flu Activity Not available.
METAR KEMV 290655Z AUTO 00000KT 10SM CLR M04/M05 A3033 RMK AO2

More Conditions Fewer Conditions

10-Day Weather Forecast

Almanac

Astronomy

Nov. 29, 2014 Rise Set
Actual Time
Civil Twilight
Nautical Twilight
Astronomical Twilight
Moon
Length of Visible Light
Length of Day
Tomorrow will be .
, % of the Moon is Illuminated

Today's Extremes

State Highs State Lows

Community

WunderPhotos

Upload Photos

1,774,432 photos uploaded!

WunderBlogs® & News

Nearby

Air Quality

  Air Quality AQ Index Pollutant
Not available.

Snow Depth

Station Depth Elevation

Earthquake Activity

City Distance Mag. Time & Date
Minimum magnitude displayed is 2.5.

Coastal Water Temperatures

Place Temperature

Nearby Weather Stations